sensor_id;sensor_type;location;lat;lon;timestamp;P1;durP1;ratioP1;P2;durP2;ratioP2
14883;SDS011;7534;50.762;7.000;2023-07-30T00:01:42;4.67;;;4.10;;
14883;SDS011;7534;50.762;7.000;2023-07-30T00:04:08;4.77;;;3.90;;
14883;SDS011;7534;50.762;7.000;2023-07-30T00:06:33;4.30;;;3.90;;
14883;SDS011;7534;50.762;7.000;2023-07-30T00:08:59;5.00;;;4.17;;
14883;SDS011;7534;50.762;7.000;2023-07-30T00:11:25;4.23;;;3.80;;
14883;SDS011;7534;50.762;7.000;2023-07-30T00:13:51;4.83;;;4.30;;
14883;SDS011;7534;50.762;7.000;2023-07-30T00:16:17;6.03;;;4.47;;
14883;SDS011;7534;50.762;7.000;2023-07-30T00:18:43;4.40;;;4.00;;
14883;SDS011;7534;50.762;7.000;2023-07-30T00:21:09;4.30;;;3.87;;
14883;SDS011;7534;50.762;7.000;2023-07-30T00:23:34;4.70;;;4.10;;
14883;SDS011;7534;50.762;7.000;2023-07-30T00:26:00;4.17;;;3.77;;
14883;SDS011;7534;50.762;7.000;2023-07-30T00:28:41;4.10;;;3.70;;
14883;SDS011;7534;50.762;7.000;2023-07-30T00:31:08;5.53;;;4.20;;
14883;SDS011;7534;50.762;7.000;2023-07-30T00:33:38;5.80;;;4.30;;
14883;SDS011;7534;50.762;7.000;2023-07-30T00:36:03;4.90;;;4.00;;
14883;SDS011;7534;50.762;7.000;2023-07-30T00:38:29;4.53;;;4.07;;
14883;SDS011;7534;50.762;7.000;2023-07-30T00:40:55;4.97;;;3.80;;
14883;SDS011;7534;50.762;7.000;2023-07-30T00:43:21;5.33;;;4.03;;
14883;SDS011;7534;50.762;7.000;2023-07-30T00:45:47;5.87;;;4.20;;
14883;SDS011;7534;50.762;7.000;2023-07-30T00:48:14;6.40;;;4.20;;
14883;SDS011;7534;50.762;7.000;2023-07-30T00:50:40;5.73;;;4.40;;
14883;SDS011;7534;50.762;7.000;2023-07-30T00:53:07;6.53;;;3.97;;
14883;SDS011;7534;50.762;7.000;2023-07-30T00:55:38;5.57;;;3.87;;
14883;SDS011;7534;50.762;7.000;2023-07-30T00:58:04;5.73;;;3.70;;
14883;SDS011;7534;50.762;7.000;2023-07-30T01:00:30;3.97;;;3.67;;
14883;SDS011;7534;50.762;7.000;2023-07-30T01:02:57;4.80;;;4.00;;
14883;SDS011;7534;50.762;7.000;2023-07-30T01:05:23;5.67;;;3.70;;
14883;SDS011;7534;50.762;7.000;2023-07-30T01:07:48;4.03;;;3.70;;
14883;SDS011;7534;50.762;7.000;2023-07-30T01:10:14;6.63;;;3.90;;
14883;SDS011;7534;50.762;7.000;2023-07-30T01:12:41;4.70;;;4.23;;
14883;SDS011;7534;50.762;7.000;2023-07-30T01:15:09;5.23;;;3.63;;
14883;SDS011;7534;50.762;7.000;2023-07-30T01:17:35;5.33;;;4.13;;
14883;SDS011;7534;50.762;7.000;2023-07-30T01:20:02;5.00;;;3.90;;
14883;SDS011;7534;50.762;7.000;2023-07-30T01:22:28;5.47;;;4.03;;
14883;SDS011;7534;50.762;7.000;2023-07-30T01:24:54;5.80;;;3.57;;
14883;SDS011;7534;50.762;7.000;2023-07-30T01:27:24;4.47;;;3.60;;
14883;SDS011;7534;50.762;7.000;2023-07-30T01:30:03;5.73;;;3.90;;
14883;SDS011;7534;50.762;7.000;2023-07-30T01:32:35;4.27;;;3.60;;
14883;SDS011;7534;50.762;7.000;2023-07-30T01:35:03;4.30;;;3.80;;
14883;SDS011;7534;50.762;7.000;2023-07-30T01:37:32;4.33;;;3.93;;
14883;SDS011;7534;50.762;7.000;2023-07-30T01:39:59;4.23;;;3.80;;
14883;SDS011;7534;50.762;7.000;2023-07-30T01:42:29;5.80;;;4.30;;
14883;SDS011;7534;50.762;7.000;2023-07-30T01:44:56;4.80;;;4.20;;
14883;SDS011;7534;50.762;7.000;2023-07-30T01:47:22;5.00;;;4.03;;
14883;SDS011;7534;50.762;7.000;2023-07-30T01:49:48;4.40;;;3.80;;
14883;SDS011;7534;50.762;7.000;2023-07-30T01:52:13;5.07;;;3.80;;
14883;SDS011;7534;50.762;7.000;2023-07-30T01:54:39;4.67;;;3.77;;
14883;SDS011;7534;50.762;7.000;2023-07-30T01:57:05;4.10;;;3.77;;
14883;SDS011;7534;50.762;7.000;2023-07-30T01:59:31;6.53;;;4.03;;
14883;SDS011;7534;50.762;7.000;2023-07-30T02:01:56;5.37;;;3.93;;
14883;SDS011;7534;50.762;7.000;2023-07-30T02:04:22;4.53;;;3.63;;
14883;SDS011;7534;50.762;7.000;2023-07-30T02:06:48;6.47;;;3.75;;
14883;SDS011;7534;50.762;7.000;2023-07-30T02:09:13;3.80;;;3.40;;
14883;SDS011;7534;50.762;7.000;2023-07-30T02:11:39;4.17;;;3.50;;
14883;SDS011;7534;50.762;7.000;2023-07-30T02:14:05;4.83;;;3.43;;
14883;SDS011;7534;50.762;7.000;2023-07-30T02:16:31;4.85;;;3.92;;
14883;SDS011;7534;50.762;7.000;2023-07-30T02:18:56;6.67;;;3.80;;
14883;SDS011;7534;50.762;7.000;2023-07-30T02:21:22;3.93;;;3.27;;
14883;SDS011;7534;50.762;7.000;2023-07-30T02:23:48;5.53;;;3.53;;
14883;SDS011;7534;50.762;7.000;2023-07-30T02:26:13;8.30;;;3.40;;
14883;SDS011;7534;50.762;7.000;2023-07-30T02:28:39;5.07;;;3.00;;
14883;SDS011;7534;50.762;7.000;2023-07-30T02:31:05;3.90;;;3.23;;
14883;SDS011;7534;50.762;7.000;2023-07-30T02:33:36;3.60;;;3.30;;
14883;SDS011;7534;50.762;7.000;2023-07-30T02:36:04;5.63;;;3.27;;
14883;SDS011;7534;50.762;7.000;2023-07-30T02:38:30;3.83;;;3.17;;
14883;SDS011;7534;50.762;7.000;2023-07-30T02:40:56;6.07;;;3.20;;
14883;SDS011;7534;50.762;7.000;2023-07-30T02:43:22;5.80;;;3.80;;
14883;SDS011;7534;50.762;7.000;2023-07-30T02:45:48;5.10;;;2.58;;
14883;SDS011;7534;50.762;7.000;2023-07-30T02:48:14;6.00;;;3.13;;
14883;SDS011;7534;50.762;7.000;2023-07-30T02:50:40;4.93;;;2.70;;
14883;SDS011;7534;50.762;7.000;2023-07-30T02:53:06;4.70;;;3.30;;
14883;SDS011;7534;50.762;7.000;2023-07-30T02:55:32;5.55;;;3.03;;
14883;SDS011;7534;50.762;7.000;2023-07-30T02:57:58;5.27;;;3.10;;
14883;SDS011;7534;50.762;7.000;2023-07-30T03:00:23;5.90;;;2.90;;
14883;SDS011;7534;50.762;7.000;2023-07-30T03:02:49;4.53;;;3.20;;
14883;SDS011;7534;50.762;7.000;2023-07-30T03:05:15;4.07;;;3.00;;
14883;SDS011;7534;50.762;7.000;2023-07-30T03:07:40;4.37;;;3.07;;
14883;SDS011;7534;50.762;7.000;2023-07-30T03:10:06;3.37;;;2.60;;
14883;SDS011;7534;50.762;7.000;2023-07-30T03:12:32;4.10;;;2.87;;
14883;SDS011;7534;50.762;7.000;2023-07-30T03:14:58;5.30;;;3.00;;
14883;SDS011;7534;50.762;7.000;2023-07-30T03:17:23;3.80;;;2.67;;
14883;SDS011;7534;50.762;7.000;2023-07-30T03:19:50;3.70;;;2.93;;
14883;SDS011;7534;50.762;7.000;2023-07-30T03:22:15;6.67;;;2.90;;
14883;SDS011;7534;50.762;7.000;2023-07-30T03:24:41;5.40;;;2.67;;
14883;SDS011;7534;50.762;7.000;2023-07-30T03:27:07;6.40;;;3.07;;
14883;SDS011;7534;50.762;7.000;2023-07-30T03:29:32;4.53;;;3.03;;
14883;SDS011;7534;50.762;7.000;2023-07-30T03:31:58;5.63;;;3.47;;
14883;SDS011;7534;50.762;7.000;2023-07-30T03:34:24;4.43;;;2.80;;
14883;SDS011;7534;50.762;7.000;2023-07-30T03:36:49;4.33;;;2.80;;
14883;SDS011;7534;50.762;7.000;2023-07-30T03:39:15;3.67;;;2.80;;
14883;SDS011;7534;50.762;7.000;2023-07-30T03:41:41;6.73;;;3.50;;
14883;SDS011;7534;50.762;7.000;2023-07-30T03:44:08;5.43;;;2.90;;
14883;SDS011;7534;50.762;7.000;2023-07-30T03:46:33;4.57;;;3.17;;
14883;SDS011;7534;50.762;7.000;2023-07-30T03:48:59;4.57;;;2.87;;
14883;SDS011;7534;50.762;7.000;2023-07-30T03:51:26;3.40;;;2.73;;
14883;SDS011;7534;50.762;7.000;2023-07-30T03:53:52;4.93;;;3.10;;
14883;SDS011;7534;50.762;7.000;2023-07-30T03:56:18;5.60;;;2.90;;
14883;SDS011;7534;50.762;7.000;2023-07-30T03:58:43;3.70;;;3.00;;
14883;SDS011;7534;50.762;7.000;2023-07-30T04:01:09;5.50;;;3.13;;
14883;SDS011;7534;50.762;7.000;2023-07-30T04:03:35;5.13;;;2.95;;
14883;SDS011;7534;50.762;7.000;2023-07-30T04:06:00;6.20;;;2.60;;
14883;SDS011;7534;50.762;7.000;2023-07-30T04:08:26;8.47;;;3.47;;
14883;SDS011;7534;50.762;7.000;2023-07-30T04:10:52;6.67;;;2.73;;
14883;SDS011;7534;50.762;7.000;2023-07-30T04:13:17;6.87;;;2.80;;
14883;SDS011;7534;50.762;7.000;2023-07-30T04:15:43;5.63;;;2.60;;
14883;SDS011;7534;50.762;7.000;2023-07-30T04:18:09;4.43;;;2.50;;
14883;SDS011;7534;50.762;7.000;2023-07-30T04:20:34;3.30;;;2.60;;
14883;SDS011;7534;50.762;7.000;2023-07-30T04:23:00;8.80;;;2.60;;
14883;SDS011;7534;50.762;7.000;2023-07-30T04:25:26;6.90;;;2.50;;
14883;SDS011;7534;50.762;7.000;2023-07-30T04:27:51;5.27;;;2.80;;
14883;SDS011;7534;50.762;7.000;2023-07-30T04:30:17;6.13;;;2.30;;
14883;SDS011;7534;50.762;7.000;2023-07-30T04:32:43;5.07;;;2.10;;
14883;SDS011;7534;50.762;7.000;2023-07-30T04:35:09;4.97;;;2.53;;
14883;SDS011;7534;50.762;7.000;2023-07-30T04:37:34;2.37;;;2.00;;
14883;SDS011;7534;50.762;7.000;2023-07-30T04:40:00;5.47;;;2.20;;
14883;SDS011;7534;50.762;7.000;2023-07-30T04:42:26;3.53;;;2.00;;
14883;SDS011;7534;50.762;7.000;2023-07-30T04:44:51;5.95;;;1.88;;
14883;SDS011;7534;50.762;7.000;2023-07-30T04:47:20;4.97;;;2.10;;
14883;SDS011;7534;50.762;7.000;2023-07-30T04:49:54;5.40;;;2.10;;
14883;SDS011;7534;50.762;7.000;2023-07-30T04:52:21;6.00;;;2.50;;
14883;SDS011;7534;50.762;7.000;2023-07-30T04:54:47;5.60;;;2.10;;
14883;SDS011;7534;50.762;7.000;2023-07-30T04:57:13;4.40;;;2.07;;
14883;SDS011;7534;50.762;7.000;2023-07-30T04:59:39;5.43;;;2.20;;
14883;SDS011;7534;50.762;7.000;2023-07-30T05:02:05;4.37;;;2.40;;
14883;SDS011;7534;50.762;7.000;2023-07-30T05:04:31;3.03;;;2.10;;
14883;SDS011;7534;50.762;7.000;2023-07-30T05:06:56;7.30;;;2.43;;
14883;SDS011;7534;50.762;7.000;2023-07-30T05:09:22;4.20;;;2.50;;
14883;SDS011;7534;50.762;7.000;2023-07-30T05:11:48;3.80;;;1.90;;
14883;SDS011;7534;50.762;7.000;2023-07-30T05:14:13;5.95;;;2.33;;
14883;SDS011;7534;50.762;7.000;2023-07-30T05:16:39;4.30;;;2.17;;
14883;SDS011;7534;50.762;7.000;2023-07-30T05:19:05;7.78;;;2.28;;
14883;SDS011;7534;50.762;7.000;2023-07-30T05:21:31;3.92;;;2.08;;
14883;SDS011;7534;50.762;7.000;2023-07-30T05:23:56;4.55;;;2.10;;
14883;SDS011;7534;50.762;7.000;2023-07-30T05:26:22;5.32;;;2.30;;
14883;SDS011;7534;50.762;7.000;2023-07-30T05:28:48;3.25;;;2.08;;
14883;SDS011;7534;50.762;7.000;2023-07-30T05:31:13;4.53;;;2.13;;
14883;SDS011;7534;50.762;7.000;2023-07-30T05:33:39;4.40;;;2.05;;
14883;SDS011;7534;50.762;7.000;2023-07-30T05:36:05;4.15;;;2.25;;
14883;SDS011;7534;50.762;7.000;2023-07-30T05:38:31;6.00;;;2.10;;
14883;SDS011;7534;50.762;7.000;2023-07-30T05:40:57;5.45;;;2.08;;
14883;SDS011;7534;50.762;7.000;2023-07-30T05:43:23;3.45;;;2.20;;
14883;SDS011;7534;50.762;7.000;2023-07-30T05:45:48;3.58;;;2.05;;
14883;SDS011;7534;50.762;7.000;2023-07-30T05:48:14;4.80;;;2.10;;
14883;SDS011;7534;50.762;7.000;2023-07-30T05:50:40;6.05;;;2.00;;
14883;SDS011;7534;50.762;7.000;2023-07-30T05:53:05;6.60;;;2.08;;
14883;SDS011;7534;50.762;7.000;2023-07-30T05:55:31;3.47;;;2.08;;
14883;SDS011;7534;50.762;7.000;2023-07-30T05:57:57;5.25;;;1.92;;
14883;SDS011;7534;50.762;7.000;2023-07-30T06:00:23;4.68;;;2.20;;
14883;SDS011;7534;50.762;7.000;2023-07-30T06:02:49;6.78;;;2.03;;
14883;SDS011;7534;50.762;7.000;2023-07-30T06:05:15;4.53;;;2.10;;
14883;SDS011;7534;50.762;7.000;2023-07-30T06:07:40;6.35;;;2.30;;
14883;SDS011;7534;50.762;7.000;2023-07-30T06:10:06;6.00;;;2.20;;
14883;SDS011;7534;50.762;7.000;2023-07-30T06:12:32;9.48;;;2.38;;
14883;SDS011;7534;50.762;7.000;2023-07-30T06:14:58;2.22;;;1.83;;
14883;SDS011;7534;50.762;7.000;2023-07-30T06:17:24;4.43;;;2.10;;
14883;SDS011;7534;50.762;7.000;2023-07-30T06:19:50;5.32;;;2.17;;
14883;SDS011;7534;50.762;7.000;2023-07-30T06:22:15;7.78;;;2.00;;
14883;SDS011;7534;50.762;7.000;2023-07-30T06:24:41;3.58;;;1.90;;
14883;SDS011;7534;50.762;7.000;2023-07-30T06:27:07;6.22;;;2.50;;
14883;SDS011;7534;50.762;7.000;2023-07-30T06:29:34;6.43;;;2.22;;
14883;SDS011;7534;50.762;7.000;2023-07-30T06:32:01;2.83;;;2.10;;
14883;SDS011;7534;50.762;7.000;2023-07-30T06:34:27;4.18;;;2.30;;
14883;SDS011;7534;50.762;7.000;2023-07-30T06:36:53;7.78;;;2.40;;
14883;SDS011;7534;50.762;7.000;2023-07-30T06:39:20;6.10;;;2.50;;
14883;SDS011;7534;50.762;7.000;2023-07-30T06:41:46;4.70;;;2.20;;
14883;SDS011;7534;50.762;7.000;2023-07-30T06:44:12;7.00;;;2.47;;
14883;SDS011;7534;50.762;7.000;2023-07-30T06:46:38;5.28;;;2.33;;
14883;SDS011;7534;50.762;7.000;2023-07-30T06:49:03;6.20;;;2.40;;
14883;SDS011;7534;50.762;7.000;2023-07-30T06:51:29;5.68;;;2.10;;
14883;SDS011;7534;50.762;7.000;2023-07-30T06:53:55;8.00;;;2.28;;
14883;SDS011;7534;50.762;7.000;2023-07-30T06:56:21;5.85;;;2.30;;
14883;SDS011;7534;50.762;7.000;2023-07-30T06:58:47;5.53;;;2.17;;
14883;SDS011;7534;50.762;7.000;2023-07-30T07:01:14;8.48;;;2.55;;
14883;SDS011;7534;50.762;7.000;2023-07-30T07:03:39;3.75;;;2.22;;
14883;SDS011;7534;50.762;7.000;2023-07-30T07:06:05;3.28;;;2.65;;
14883;SDS011;7534;50.762;7.000;2023-07-30T07:08:31;5.97;;;2.63;;
14883;SDS011;7534;50.762;7.000;2023-07-30T07:10:56;4.68;;;2.50;;
14883;SDS011;7534;50.762;7.000;2023-07-30T07:13:22;5.35;;;2.75;;
14883;SDS011;7534;50.762;7.000;2023-07-30T07:15:48;4.97;;;2.35;;
14883;SDS011;7534;50.762;7.000;2023-07-30T07:18:14;5.63;;;2.28;;
14883;SDS011;7534;50.762;7.000;2023-07-30T07:20:40;4.28;;;2.40;;
14883;SDS011;7534;50.762;7.000;2023-07-30T07:23:05;5.38;;;2.30;;
14883;SDS011;7534;50.762;7.000;2023-07-30T07:25:32;3.50;;;2.28;;
14883;SDS011;7534;50.762;7.000;2023-07-30T07:28:02;5.22;;;2.50;;
14883;SDS011;7534;50.762;7.000;2023-07-30T07:30:28;4.22;;;2.20;;
14883;SDS011;7534;50.762;7.000;2023-07-30T07:32:54;4.38;;;2.05;;
14883;SDS011;7534;50.762;7.000;2023-07-30T07:35:20;5.20;;;2.22;;
14883;SDS011;7534;50.762;7.000;2023-07-30T07:37:47;4.60;;;2.10;;
14883;SDS011;7534;50.762;7.000;2023-07-30T07:40:12;2.72;;;2.08;;
14883;SDS011;7534;50.762;7.000;2023-07-30T07:42:38;4.05;;;1.90;;
14883;SDS011;7534;50.762;7.000;2023-07-30T07:45:05;4.18;;;2.15;;
14883;SDS011;7534;50.762;7.000;2023-07-30T07:47:32;3.40;;;2.22;;
14883;SDS011;7534;50.762;7.000;2023-07-30T07:49:58;2.85;;;1.80;;
14883;SDS011;7534;50.762;7.000;2023-07-30T07:52:23;5.28;;;2.03;;
14883;SDS011;7534;50.762;7.000;2023-07-30T07:54:49;3.00;;;2.08;;
14883;SDS011;7534;50.762;7.000;2023-07-30T07:57:15;4.30;;;2.33;;
14883;SDS011;7534;50.762;7.000;2023-07-30T07:59:41;3.35;;;1.85;;
14883;SDS011;7534;50.762;7.000;2023-07-30T08:02:09;6.75;;;1.88;;
14883;SDS011;7534;50.762;7.000;2023-07-30T08:04:38;3.55;;;1.60;;
14883;SDS011;7534;50.762;7.000;2023-07-30T08:07:04;3.50;;;1.88;;
14883;SDS011;7534;50.762;7.000;2023-07-30T08:09:31;3.22;;;1.70;;
14883;SDS011;7534;50.762;7.000;2023-07-30T08:11:57;7.28;;;1.90;;
14883;SDS011;7534;50.762;7.000;2023-07-30T08:14:24;6.40;;;1.60;;
14883;SDS011;7534;50.762;7.000;2023-07-30T08:16:50;5.10;;;1.98;;
14883;SDS011;7534;50.762;7.000;2023-07-30T08:19:15;5.80;;;1.83;;
14883;SDS011;7534;50.762;7.000;2023-07-30T08:21:41;5.97;;;2.25;;
14883;SDS011;7534;50.762;7.000;2023-07-30T08:24:07;4.55;;;1.80;;
14883;SDS011;7534;50.762;7.000;2023-07-30T08:26:32;3.17;;;1.90;;
14883;SDS011;7534;50.762;7.000;2023-07-30T08:28:58;5.45;;;1.65;;
14883;SDS011;7534;50.762;7.000;2023-07-30T08:31:24;5.82;;;1.83;;
14883;SDS011;7534;50.762;7.000;2023-07-30T08:33:50;4.93;;;2.00;;
14883;SDS011;7534;50.762;7.000;2023-07-30T08:36:16;3.38;;;1.73;;
14883;SDS011;7534;50.762;7.000;2023-07-30T08:38:41;5.10;;;1.92;;
14883;SDS011;7534;50.762;7.000;2023-07-30T08:41:07;3.60;;;1.80;;
14883;SDS011;7534;50.762;7.000;2023-07-30T08:43:34;4.85;;;1.85;;
14883;SDS011;7534;50.762;7.000;2023-07-30T08:51:16;5.75;;;1.98;;
14883;SDS011;7534;50.762;7.000;2023-07-30T08:53:44;5.45;;;2.10;;
14883;SDS011;7534;50.762;7.000;2023-07-30T08:56:10;4.47;;;2.20;;
14883;SDS011;7534;50.762;7.000;2023-07-30T08:58:36;5.25;;;1.92;;
14883;SDS011;7534;50.762;7.000;2023-07-30T09:01:05;4.47;;;1.90;;
14883;SDS011;7534;50.762;7.000;2023-07-30T09:03:38;6.90;;;2.00;;
14883;SDS011;7534;50.762;7.000;2023-07-30T09:06:05;5.18;;;1.90;;
14883;SDS011;7534;50.762;7.000;2023-07-30T09:08:34;6.57;;;2.17;;
14883;SDS011;7534;50.762;7.000;2023-07-30T09:13:39;3.45;;;1.80;;
14883;SDS011;7534;50.762;7.000;2023-07-30T09:16:13;2.90;;;1.75;;
14883;SDS011;7534;50.762;7.000;2023-07-30T09:18:40;4.90;;;1.70;;
14883;SDS011;7534;50.762;7.000;2023-07-30T09:21:07;5.32;;;1.98;;
14883;SDS011;7534;50.762;7.000;2023-07-30T09:23:41;4.40;;;1.80;;
14883;SDS011;7534;50.762;7.000;2023-07-30T09:26:09;4.93;;;1.83;;
14883;SDS011;7534;50.762;7.000;2023-07-30T09:28:36;4.97;;;1.95;;
14883;SDS011;7534;50.762;7.000;2023-07-30T09:31:02;4.93;;;1.85;;
14883;SDS011;7534;50.762;7.000;2023-07-30T09:33:34;3.65;;;1.70;;
14883;SDS011;7534;50.762;7.000;2023-07-30T09:36:05;4.30;;;2.00;;
14883;SDS011;7534;50.762;7.000;2023-07-30T09:38:40;3.90;;;1.80;;
14883;SDS011;7534;50.762;7.000;2023-07-30T09:41:07;4.82;;;2.40;;
14883;SDS011;7534;50.762;7.000;2023-07-30T09:43:34;4.25;;;1.83;;
14883;SDS011;7534;50.762;7.000;2023-07-30T09:46:05;4.07;;;1.90;;
14883;SDS011;7534;50.762;7.000;2023-07-30T09:48:32;7.53;;;2.00;;
14883;SDS011;7534;50.762;7.000;2023-07-30T09:50:59;4.97;;;1.80;;
14883;SDS011;7534;50.762;7.000;2023-07-30T09:53:31;4.68;;;1.75;;
14883;SDS011;7534;50.762;7.000;2023-07-30T09:56:03;6.03;;;1.92;;
14883;SDS011;7534;50.762;7.000;2023-07-30T09:58:32;3.47;;;1.70;;
14883;SDS011;7534;50.762;7.000;2023-07-30T10:00:58;4.40;;;1.50;;
14883;SDS011;7534;50.762;7.000;2023-07-30T10:03:26;3.50;;;1.75;;
14883;SDS011;7534;50.762;7.000;2023-07-30T10:06:01;4.78;;;1.63;;
14883;SDS011;7534;50.762;7.000;2023-07-30T10:08:31;3.53;;;1.90;;
14883;SDS011;7534;50.762;7.000;2023-07-30T10:11:05;4.00;;;1.70;;
14883;SDS011;7534;50.762;7.000;2023-07-30T10:13:33;4.38;;;1.65;;
14883;SDS011;7534;50.762;7.000;2023-07-30T10:16:02;5.05;;;1.90;;
14883;SDS011;7534;50.762;7.000;2023-07-30T10:18:41;3.67;;;1.60;;
14883;SDS011;7534;50.762;7.000;2023-07-30T10:21:09;3.80;;;1.77;;
14883;SDS011;7534;50.762;7.000;2023-07-30T10:23:46;6.82;;;1.95;;
14883;SDS011;7534;50.762;7.000;2023-07-30T10:26:33;2.97;;;1.58;;
14883;SDS011;7534;50.762;7.000;2023-07-30T10:29:09;4.32;;;2.42;;
14883;SDS011;7534;50.762;7.000;2023-07-30T10:31:47;4.63;;;1.60;;
14883;SDS011;7534;50.762;7.000;2023-07-30T10:34:17;4.70;;;1.63;;
14883;SDS011;7534;50.762;7.000;2023-07-30T10:36:44;3.90;;;1.77;;
14883;SDS011;7534;50.762;7.000;2023-07-30T10:39:18;5.40;;;1.60;;
14883;SDS011;7534;50.762;7.000;2023-07-30T10:41:49;4.63;;;1.70;;
14883;SDS011;7534;50.762;7.000;2023-07-30T10:46:54;5.65;;;1.92;;
14883;SDS011;7534;50.762;7.000;2023-07-30T10:49:22;3.90;;;1.67;;
14883;SDS011;7534;50.762;7.000;2023-07-30T10:51:50;6.60;;;1.92;;
14883;SDS011;7534;50.762;7.000;2023-07-30T10:54:18;4.55;;;1.88;;
14883;SDS011;7534;50.762;7.000;2023-07-30T10:56:44;3.40;;;1.50;;
14883;SDS011;7534;50.762;7.000;2023-07-30T10:59:11;4.28;;;1.50;;
14883;SDS011;7534;50.762;7.000;2023-07-30T11:01:40;4.53;;;1.80;;
14883;SDS011;7534;50.762;7.000;2023-07-30T11:04:11;4.03;;;1.52;;
14883;SDS011;7534;50.762;7.000;2023-07-30T11:06:47;3.45;;;1.67;;
14883;SDS011;7534;50.762;7.000;2023-07-30T11:09:25;5.03;;;2.00;;
14883;SDS011;7534;50.762;7.000;2023-07-30T11:11:54;4.80;;;1.70;;
14883;SDS011;7534;50.762;7.000;2023-07-30T11:14:22;2.80;;;1.50;;
14883;SDS011;7534;50.762;7.000;2023-07-30T11:16:53;3.45;;;1.52;;
14883;SDS011;7534;50.762;7.000;2023-07-30T11:19:24;3.63;;;1.55;;
14883;SDS011;7534;50.762;7.000;2023-07-30T11:21:52;3.08;;;1.60;;
14883;SDS011;7534;50.762;7.000;2023-07-30T11:24:20;3.00;;;1.50;;
14883;SDS011;7534;50.762;7.000;2023-07-30T11:26:58;4.10;;;1.75;;
14883;SDS011;7534;50.762;7.000;2023-07-30T11:29:26;3.42;;;1.98;;
14883;SDS011;7534;50.762;7.000;2023-07-30T11:31:55;2.63;;;1.50;;
14883;SDS011;7534;50.762;7.000;2023-07-30T11:34:24;3.97;;;1.70;;
14883;SDS011;7534;50.762;7.000;2023-07-30T11:36:51;3.33;;;1.42;;
14883;SDS011;7534;50.762;7.000;2023-07-30T11:39:19;2.60;;;1.40;;
14883;SDS011;7534;50.762;7.000;2023-07-30T11:41:45;2.47;;;1.42;;
14883;SDS011;7534;50.762;7.000;2023-07-30T11:44:30;3.70;;;1.52;;
14883;SDS011;7534;50.762;7.000;2023-07-30T11:47:03;2.92;;;1.50;;
14883;SDS011;7534;50.762;7.000;2023-07-30T11:49:30;2.20;;;1.42;;
14883;SDS011;7534;50.762;7.000;2023-07-30T11:52:05;2.47;;;1.45;;
14883;SDS011;7534;50.762;7.000;2023-07-30T11:54:34;2.28;;;1.40;;
14883;SDS011;7534;50.762;7.000;2023-07-30T11:57:00;2.75;;;1.42;;
14883;SDS011;7534;50.762;7.000;2023-07-30T11:59:26;3.03;;;1.30;;
14883;SDS011;7534;50.762;7.000;2023-07-30T12:01:51;2.22;;;1.27;;
14883;SDS011;7534;50.762;7.000;2023-07-30T12:04:17;2.85;;;1.50;;
14883;SDS011;7534;50.762;7.000;2023-07-30T12:06:47;2.28;;;1.38;;
14883;SDS011;7534;50.762;7.000;2023-07-30T12:09:15;3.10;;;1.50;;
14883;SDS011;7534;50.762;7.000;2023-07-30T12:14:26;2.33;;;1.50;;
14883;SDS011;7534;50.762;7.000;2023-07-30T12:17:07;2.25;;;1.50;;
14883;SDS011;7534;50.762;7.000;2023-07-30T12:19:35;2.55;;;1.40;;
14883;SDS011;7534;50.762;7.000;2023-07-30T12:22:02;3.58;;;1.58;;
14883;SDS011;7534;50.762;7.000;2023-07-30T12:24:28;2.83;;;1.45;;
14883;SDS011;7534;50.762;7.000;2023-07-30T12:26:54;3.35;;;1.50;;
14883;SDS011;7534;50.762;7.000;2023-07-30T12:29:19;3.38;;;1.38;;
14883;SDS011;7534;50.762;7.000;2023-07-30T12:31:45;3.22;;;1.45;;
14883;SDS011;7534;50.762;7.000;2023-07-30T12:34:12;3.03;;;1.65;;
14883;SDS011;7534;50.762;7.000;2023-07-30T12:36:38;2.63;;;1.40;;
14883;SDS011;7534;50.762;7.000;2023-07-30T12:39:04;2.92;;;1.60;;
14883;SDS011;7534;50.762;7.000;2023-07-30T12:41:30;2.35;;;1.40;;
14883;SDS011;7534;50.762;7.000;2023-07-30T12:43:56;2.75;;;1.48;;
14883;SDS011;7534;50.762;7.000;2023-07-30T12:46:22;5.03;;;1.88;;
14883;SDS011;7534;50.762;7.000;2023-07-30T12:48:48;4.95;;;1.50;;
14883;SDS011;7534;50.762;7.000;2023-07-30T12:51:14;4.03;;;1.70;;
14883;SDS011;7534;50.762;7.000;2023-07-30T12:53:41;2.20;;;1.40;;
14883;SDS011;7534;50.762;7.000;2023-07-30T12:56:07;3.55;;;1.77;;
14883;SDS011;7534;50.762;7.000;2023-07-30T12:58:33;4.95;;;1.58;;
14883;SDS011;7534;50.762;7.000;2023-07-30T13:00:58;3.05;;;1.83;;
14883;SDS011;7534;50.762;7.000;2023-07-30T13:03:24;3.72;;;1.40;;
14883;SDS011;7534;50.762;7.000;2023-07-30T13:05:50;3.00;;;1.70;;
14883;SDS011;7534;50.762;7.000;2023-07-30T13:08:16;5.18;;;1.50;;
14883;SDS011;7534;50.762;7.000;2023-07-30T13:10:41;3.50;;;1.40;;
14883;SDS011;7534;50.762;7.000;2023-07-30T13:13:07;5.05;;;1.60;;
14883;SDS011;7534;50.762;7.000;2023-07-30T13:15:33;3.50;;;1.60;;
14883;SDS011;7534;50.762;7.000;2023-07-30T13:17:59;3.10;;;1.70;;
14883;SDS011;7534;50.762;7.000;2023-07-30T13:20:24;4.82;;;1.77;;
14883;SDS011;7534;50.762;7.000;2023-07-30T13:22:50;2.72;;;1.60;;
14883;SDS011;7534;50.762;7.000;2023-07-30T13:25:17;2.85;;;1.60;;
14883;SDS011;7534;50.762;7.000;2023-07-30T13:27:42;3.10;;;1.75;;
14883;SDS011;7534;50.762;7.000;2023-07-30T13:30:13;2.60;;;1.55;;
14883;SDS011;7534;50.762;7.000;2023-07-30T13:32:39;4.97;;;1.85;;
14883;SDS011;7534;50.762;7.000;2023-07-30T13:35:07;4.07;;;1.65;;
14883;SDS011;7534;50.762;7.000;2023-07-30T13:37:33;4.40;;;1.55;;
14883;SDS011;7534;50.762;7.000;2023-07-30T13:39:59;3.72;;;1.50;;
14883;SDS011;7534;50.762;7.000;2023-07-30T13:42:25;5.32;;;1.73;;
14883;SDS011;7534;50.762;7.000;2023-07-30T13:44:51;1.77;;;1.33;;
14883;SDS011;7534;50.762;7.000;2023-07-30T13:47:17;3.45;;;1.55;;
14883;SDS011;7534;50.762;7.000;2023-07-30T13:49:43;3.85;;;1.50;;
14883;SDS011;7534;50.762;7.000;2023-07-30T13:52:09;4.35;;;1.80;;
14883;SDS011;7534;50.762;7.000;2023-07-30T13:54:34;3.33;;;1.60;;
14883;SDS011;7534;50.762;7.000;2023-07-30T13:57:03;3.92;;;1.70;;
14883;SDS011;7534;50.762;7.000;2023-07-30T13:59:30;3.08;;;1.50;;
14883;SDS011;7534;50.762;7.000;2023-07-30T14:01:56;4.28;;;1.92;;
14883;SDS011;7534;50.762;7.000;2023-07-30T14:04:22;3.58;;;1.67;;
14883;SDS011;7534;50.762;7.000;2023-07-30T14:06:47;3.45;;;1.60;;
14883;SDS011;7534;50.762;7.000;2023-07-30T14:09:13;2.67;;;1.58;;
14883;SDS011;7534;50.762;7.000;2023-07-30T14:11:39;2.80;;;1.42;;
14883;SDS011;7534;50.762;7.000;2023-07-30T14:14:08;3.40;;;1.40;;
14883;SDS011;7534;50.762;7.000;2023-07-30T14:16:34;3.17;;;1.83;;
14883;SDS011;7534;50.762;7.000;2023-07-30T14:19:01;5.15;;;1.65;;
14883;SDS011;7534;50.762;7.000;2023-07-30T14:21:27;2.63;;;1.60;;
14883;SDS011;7534;50.762;7.000;2023-07-30T14:23:53;3.80;;;1.70;;
14883;SDS011;7534;50.762;7.000;2023-07-30T14:26:19;4.03;;;1.50;;
14883;SDS011;7534;50.762;7.000;2023-07-30T14:28:44;3.08;;;1.48;;
14883;SDS011;7534;50.762;7.000;2023-07-30T14:31:10;4.50;;;1.58;;
14883;SDS011;7534;50.762;7.000;2023-07-30T14:33:36;3.88;;;1.70;;
14883;SDS011;7534;50.762;7.000;2023-07-30T14:36:03;2.88;;;1.40;;
14883;SDS011;7534;50.762;7.000;2023-07-30T14:38:29;4.55;;;1.63;;
14883;SDS011;7534;50.762;7.000;2023-07-30T14:40:56;5.85;;;1.55;;
14883;SDS011;7534;50.762;7.000;2023-07-30T14:43:31;2.28;;;1.40;;
14883;SDS011;7534;50.762;7.000;2023-07-30T14:46:01;3.70;;;1.80;;
14883;SDS011;7534;50.762;7.000;2023-07-30T14:48:27;2.17;;;1.50;;
14883;SDS011;7534;50.762;7.000;2023-07-30T14:50:54;3.10;;;1.55;;
14883;SDS011;7534;50.762;7.000;2023-07-30T14:53:20;3.15;;;1.60;;
14883;SDS011;7534;50.762;7.000;2023-07-30T14:55:46;3.63;;;1.58;;
14883;SDS011;7534;50.762;7.000;2023-07-30T14:58:12;2.85;;;1.42;;
14883;SDS011;7534;50.762;7.000;2023-07-30T15:00:38;2.97;;;1.60;;
14883;SDS011;7534;50.762;7.000;2023-07-30T15:03:05;3.53;;;1.60;;
14883;SDS011;7534;50.762;7.000;2023-07-30T15:05:31;3.28;;;1.85;;
14883;SDS011;7534;50.762;7.000;2023-07-30T15:07:58;3.38;;;1.52;;
14883;SDS011;7534;50.762;7.000;2023-07-30T15:10:24;3.70;;;1.75;;
14883;SDS011;7534;50.762;7.000;2023-07-30T15:12:50;4.65;;;1.90;;